createdAt,value
2022-12-16T00:01:16.949Z,9.90
2022-12-16T00:03:50.421Z,10.57
2022-12-16T00:06:20.849Z,10.30
2022-12-16T00:08:48.730Z,11.13
2022-12-16T00:11:16.485Z,9.83
2022-12-16T00:13:44.423Z,10.23
2022-12-16T00:16:14.213Z,10.53
2022-12-16T00:18:42.050Z,10.13
2022-12-16T00:21:11.202Z,11.13
2022-12-16T00:23:41.595Z,9.37
2022-12-16T00:26:09.586Z,10.80
2022-12-16T00:28:38.005Z,11.20
2022-12-16T00:31:06.201Z,11.63
2022-12-16T00:33:34.457Z,10.83
2022-12-16T00:36:02.498Z,11.13
2022-12-16T00:38:31.888Z,10.90
2022-12-16T00:40:59.778Z,10.10
2022-12-16T00:43:27.533Z,11.33
2022-12-16T00:45:55.293Z,10.03
2022-12-16T00:48:23.961Z,10.03
2022-12-16T00:50:55.347Z,9.07
2022-12-16T00:53:24.571Z,9.90
2022-12-16T00:55:54.128Z,9.20
2022-12-16T00:58:21.850Z,10.23
2022-12-16T01:00:49.676Z,11.43
2022-12-16T01:03:21.805Z,9.57
2022-12-16T01:05:50.262Z,8.73
2022-12-16T01:08:18.294Z,10.90
2022-12-16T01:10:51.386Z,10.23
2022-12-16T01:13:21.895Z,10.33
2022-12-16T01:15:49.786Z,10.27
2022-12-16T01:18:18.663Z,10.53
2022-12-16T01:20:46.368Z,9.77
2022-12-16T01:23:14.037Z,10.27
2022-12-16T01:25:41.875Z,9.77
2022-12-16T01:28:10.188Z,10.17
2022-12-16T01:30:39.482Z,10.07
2022-12-16T01:33:07.203Z,9.50
2022-12-16T01:35:55.192Z,9.40
2022-12-16T01:38:23.823Z,9.57
2022-12-16T01:40:51.545Z,10.17
2022-12-16T01:43:24.339Z,9.93
2022-12-16T01:45:54.396Z,10.37
2022-12-16T01:48:40.010Z,9.67
2022-12-16T01:51:14.908Z,9.77
2022-12-16T01:53:43.924Z,9.57
2022-12-16T01:56:15.214Z,9.90
2022-12-16T01:58:45.007Z,8.47
2022-12-16T02:01:15.811Z,9.80
2022-12-16T02:03:43.824Z,9.43
2022-12-16T02:06:11.603Z,9.20
2022-12-16T02:08:39.362Z,9.67
2022-12-16T02:11:23.876Z,10.00
2022-12-16T02:14:07.586Z,8.90
2022-12-16T02:16:47.884Z,8.90
2022-12-16T02:19:40.158Z,9.23
2022-12-16T02:22:27.099Z,8.57
2022-12-16T02:25:26.132Z,8.77
2022-12-16T02:28:02.454Z,9.10
2022-12-16T02:30:46.027Z,9.17
2022-12-16T02:33:49.540Z,9.03
2022-12-16T02:36:31.357Z,7.80
2022-12-16T02:39:05.334Z,8.50
2022-12-16T02:41:43.790Z,9.60
2022-12-16T02:44:13.214Z,8.73
2022-12-16T02:46:44.645Z,8.07
2022-12-16T02:49:49.629Z,8.17
2022-12-16T02:52:20.231Z,7.67
2022-12-16T02:54:49.717Z,8.40
2022-12-16T02:57:30.692Z,8.27
2022-12-16T03:00:03.779Z,8.20
2022-12-16T03:02:40.173Z,8.17
2022-12-16T03:05:14.189Z,8.30
2022-12-16T03:07:44.093Z,8.83
2022-12-16T03:10:16.134Z,8.13
2022-12-16T03:12:46.505Z,7.63
2022-12-16T03:15:18.487Z,7.40
2022-12-16T03:17:50.360Z,8.47
2022-12-16T03:20:23.219Z,7.87
2022-12-16T03:22:55.544Z,7.27
2022-12-16T03:25:24.248Z,8.13
2022-12-16T03:27:57.028Z,8.20
2022-12-16T03:30:29.089Z,8.80
2022-12-16T03:33:03.400Z,8.80
2022-12-16T03:35:35.794Z,8.00
2022-12-16T03:38:06.420Z,8.93
2022-12-16T03:40:37.949Z,8.03
2022-12-16T03:43:06.852Z,8.33
2022-12-16T03:45:38.633Z,8.33
2022-12-16T03:48:10.698Z,8.30
2022-12-16T03:50:40.593Z,7.50
2022-12-16T03:53:08.779Z,7.97
2022-12-16T03:55:36.778Z,7.67
2022-12-16T03:58:04.539Z,8.37
2022-12-16T04:00:32.248Z,8.57
2022-12-16T04:03:00.154Z,8.00
2022-12-16T04:05:29.610Z,9.47
2022-12-16T04:08:01.740Z,6.63
2022-12-16T04:10:44.027Z,8.03
2022-12-16T04:13:29.792Z,7.93
2022-12-16T04:16:15.537Z,7.87
2022-12-16T04:19:03.212Z,6.63
2022-12-16T04:21:52.408Z,7.63
2022-12-16T04:24:22.435Z,9.20
2022-12-16T04:27:13.562Z,7.90
2022-12-16T04:29:57.185Z,7.83
2022-12-16T04:32:25.504Z,6.47
2022-12-16T04:34:52.385Z,7.50
2022-12-16T04:37:38.706Z,6.73
2022-12-16T04:40:24.469Z,7.67
2022-12-16T04:43:09.989Z,7.93
2022-12-16T04:45:55.431Z,7.07
2022-12-16T04:48:40.609Z,6.80
2022-12-16T04:51:25.886Z,7.03
2022-12-16T04:54:12.607Z,7.10
2022-12-16T04:56:57.895Z,6.23
2022-12-16T04:59:42.456Z,7.07
2022-12-16T05:02:27.979Z,7.37
2022-12-16T05:05:13.171Z,7.10
2022-12-16T05:08:10.034Z,7.07
2022-12-16T05:10:58.553Z,6.23
2022-12-16T05:13:43.965Z,7.80
2022-12-16T05:16:29.352Z,6.73
2022-12-16T05:19:14.602Z,6.83
2022-12-16T05:22:00.163Z,8.43
2022-12-16T05:24:49.780Z,7.07
2022-12-16T05:27:39.264Z,8.10
2022-12-16T05:30:40.240Z,8.03
2022-12-16T05:33:25.793Z,8.30
2022-12-16T05:36:13.121Z,7.53
2022-12-16T05:38:58.574Z,7.33
2022-12-16T05:41:44.146Z,7.73
2022-12-16T05:44:30.803Z,7.87
2022-12-16T05:47:16.379Z,7.50
2022-12-16T05:50:01.773Z,8.33
2022-12-16T05:52:47.151Z,6.90
2022-12-16T05:55:34.240Z,7.80
2022-12-16T05:58:19.378Z,7.73
2022-12-16T06:01:06.147Z,7.47
2022-12-16T06:03:51.517Z,6.90
2022-12-16T06:06:36.844Z,7.70
2022-12-16T06:09:22.748Z,7.73
2022-12-16T06:12:08.138Z,7.73
2022-12-16T06:14:53.590Z,7.17
2022-12-16T06:17:41.378Z,7.50
2022-12-16T06:20:27.193Z,7.87
2022-12-16T06:23:13.616Z,8.03
2022-12-16T06:25:59.326Z,7.60
2022-12-16T06:28:46.107Z,8.27
2022-12-16T06:31:31.703Z,7.07
2022-12-16T06:34:18.604Z,8.07
2022-12-16T06:37:03.742Z,7.97
2022-12-16T06:40:00.794Z,7.50
2022-12-16T06:42:46.096Z,8.03
2022-12-16T06:45:34.728Z,8.07
2022-12-16T06:48:20.475Z,8.93
2022-12-16T06:51:07.126Z,8.10
2022-12-16T06:53:52.405Z,7.90
2022-12-16T06:56:37.782Z,8.80
2022-12-16T06:59:23.134Z,7.23
2022-12-16T07:02:08.422Z,7.60
2022-12-16T07:04:53.597Z,8.27
2022-12-16T07:07:40.515Z,8.20
2022-12-16T07:10:26.300Z,7.43
2022-12-16T07:13:11.756Z,8.03
2022-12-16T07:15:57.203Z,9.23
2022-12-16T07:18:42.448Z,7.30
2022-12-16T07:21:27.782Z,8.43
2022-12-16T07:24:14.550Z,8.00
2022-12-16T07:27:00.635Z,8.37
2022-12-16T07:29:45.838Z,6.80
2022-12-16T07:32:31.103Z,7.17
2022-12-16T07:35:16.573Z,7.47
2022-12-16T07:38:01.957Z,7.03
2022-12-16T07:40:48.674Z,7.23
2022-12-16T07:43:34.475Z,6.93
2022-12-16T07:46:20.003Z,8.40
2022-12-16T07:49:05.047Z,7.90
2022-12-16T07:51:55.810Z,6.93
2022-12-16T07:54:41.288Z,7.37
2022-12-16T07:57:27.709Z,7.63
2022-12-16T08:00:12.188Z,6.83
2022-12-16T08:02:57.862Z,7.40
2022-12-16T08:05:43.390Z,6.73
2022-12-16T08:08:28.729Z,7.73
2022-12-16T08:11:14.119Z,8.73
2022-12-16T08:14:00.776Z,7.87
2022-12-16T08:16:46.181Z,8.00
2022-12-16T08:19:31.349Z,7.57
2022-12-16T08:22:16.947Z,8.17
2022-12-16T08:25:02.235Z,6.77
2022-12-16T08:27:47.269Z,6.90
2022-12-16T08:30:34.460Z,6.60
2022-12-16T08:33:20.059Z,11.90
2022-12-16T08:36:05.967Z,7.83
2022-12-16T08:38:51.314Z,7.97
2022-12-16T08:41:36.506Z,7.40
2022-12-16T08:44:21.911Z,6.83
2022-12-16T08:47:08.554Z,7.83
2022-12-16T08:49:56.230Z,7.83
2022-12-16T08:52:45.064Z,7.90
2022-12-16T08:55:30.467Z,7.17
2022-12-16T08:58:15.777Z,6.67
2022-12-16T09:01:06.572Z,6.47
2022-12-16T09:03:53.882Z,6.30
2022-12-16T09:06:40.909Z,6.50
2022-12-16T09:09:26.624Z,6.30
2022-12-16T09:12:12.024Z,7.30
2022-12-16T09:14:57.559Z,7.23
2022-12-16T09:17:43.484Z,6.17
2022-12-16T09:20:30.320Z,7.50
2022-12-16T09:23:15.622Z,7.90
2022-12-16T09:26:01.078Z,8.37
2022-12-16T09:28:46.100Z,6.90
2022-12-16T09:31:31.559Z,7.73
2022-12-16T09:34:16.628Z,7.53
2022-12-16T09:37:03.392Z,6.13
2022-12-16T09:39:48.734Z,6.27
2022-12-16T09:42:47.241Z,7.00
2022-12-16T09:45:39.631Z,7.27
2022-12-16T09:48:31.534Z,6.77
2022-12-16T09:51:21.071Z,7.60
2022-12-16T09:54:11.077Z,6.10
2022-12-16T09:56:56.336Z,6.87
2022-12-16T09:59:47.129Z,5.90
2022-12-16T10:02:36.219Z,6.87
2022-12-16T10:05:28.178Z,6.93
2022-12-16T10:08:19.238Z,6.23
2022-12-16T10:11:14.863Z,6.17
2022-12-16T10:14:07.243Z,6.43
2022-12-16T10:17:15.213Z,6.53
2022-12-16T10:20:09.332Z,6.03
2022-12-16T10:23:00.857Z,6.27
2022-12-16T10:25:53.181Z,5.93
2022-12-16T10:28:48.735Z,6.50
2022-12-16T10:31:35.689Z,6.37
2022-12-16T10:34:21.878Z,6.70
2022-12-16T10:37:13.236Z,5.83
2022-12-16T10:40:07.551Z,6.93
2022-12-16T10:42:59.378Z,7.07
2022-12-16T10:45:53.069Z,6.37
2022-12-16T10:48:51.185Z,6.93
2022-12-16T10:51:43.436Z,6.60
2022-12-16T10:54:44.323Z,6.97
2022-12-16T10:57:37.610Z,7.47
2022-12-16T11:00:32.121Z,7.50
2022-12-16T11:03:36.829Z,7.57
2022-12-16T11:06:22.767Z,7.83
2022-12-16T11:09:08.144Z,7.27
2022-12-16T11:11:53.427Z,8.43
2022-12-16T11:14:59.560Z,8.37
2022-12-16T11:17:48.124Z,7.60
2022-12-16T11:20:38.455Z,7.40
2022-12-16T11:23:36.428Z,7.53
2022-12-16T11:26:36.314Z,7.83
2022-12-16T11:29:25.108Z,8.47
2022-12-16T11:32:16.557Z,8.37
2022-12-16T11:35:04.934Z,7.80
2022-12-16T11:37:53.187Z,7.90
2022-12-16T11:40:40.243Z,7.67
2022-12-16T11:43:26.024Z,7.80
2022-12-16T11:46:12.492Z,7.53
2022-12-16T11:49:02.812Z,7.13
2022-12-16T11:51:54.480Z,6.70
2022-12-16T11:55:03.675Z,6.93
2022-12-16T11:58:01.767Z,6.33
2022-12-16T12:00:47.938Z,6.77
2022-12-16T12:03:39.967Z,7.23
2022-12-16T12:06:36.575Z,6.53
2022-12-16T12:09:26.860Z,6.27
2022-12-16T12:12:22.288Z,6.97
2022-12-16T12:15:11.608Z,6.80
2022-12-16T12:18:03.937Z,6.37
2022-12-16T12:21:00.977Z,6.60
2022-12-16T12:23:58.038Z,5.40
2022-12-16T12:26:48.495Z,6.67
2022-12-16T12:29:41.112Z,7.07
2022-12-16T12:32:43.633Z,6.57
2022-12-16T12:35:48.252Z,7.10
2022-12-16T12:38:38.558Z,6.10
2022-12-16T12:41:30.419Z,6.97
2022-12-16T12:44:24.896Z,6.67
2022-12-16T12:47:15.902Z,6.53
2022-12-16T12:50:12.820Z,6.70
2022-12-16T12:53:23.302Z,7.50
2022-12-16T12:56:20.790Z,6.87
2022-12-16T12:59:12.916Z,6.27
2022-12-16T13:02:01.412Z,7.20
2022-12-16T13:04:51.296Z,7.07
2022-12-16T13:07:45.620Z,6.47
2022-12-16T13:10:50.731Z,6.97
2022-12-16T13:14:03.351Z,6.67
2022-12-16T13:17:25.927Z,6.73
2022-12-16T13:20:18.670Z,6.10
2022-12-16T13:23:05.383Z,7.77
2022-12-16T13:26:03.570Z,6.70
2022-12-16T13:28:53.313Z,7.10
2022-12-16T13:31:39.087Z,7.27
2022-12-16T13:34:38.853Z,6.93
2022-12-16T13:37:35.683Z,7.53
2022-12-16T13:40:21.608Z,8.30
2022-12-16T13:43:10.331Z,6.83
2022-12-16T13:46:01.394Z,7.00
2022-12-16T13:48:56.365Z,7.73
2022-12-16T13:52:18.547Z,7.63
2022-12-16T13:55:11.292Z,7.90
2022-12-16T13:58:01.237Z,7.37
2022-12-16T14:00:48.241Z,8.70
2022-12-16T14:03:38.781Z,8.17
2022-12-16T14:06:30.628Z,7.97
2022-12-16T14:09:16.655Z,8.73
2022-12-16T14:12:08.490Z,7.17
2022-12-16T14:15:04.491Z,8.43
2022-12-16T14:17:57.978Z,7.67
2022-12-16T14:20:47.899Z,7.50
2022-12-16T14:23:57.597Z,7.97
2022-12-16T14:26:44.353Z,6.97
2022-12-16T14:29:38.996Z,8.67
2022-12-16T14:32:37.999Z,7.73
2022-12-16T14:35:30.440Z,7.67
2022-12-16T14:38:16.788Z,7.57
2022-12-16T14:41:07.950Z,7.07
2022-12-16T14:43:53.152Z,7.77
2022-12-16T14:46:47.228Z,8.20
2022-12-16T14:49:39.730Z,7.67
2022-12-16T14:52:35.810Z,8.73
2022-12-16T14:55:38.797Z,7.80
2022-12-16T14:58:28.630Z,8.17
2022-12-16T15:01:17.080Z,8.07
2022-12-16T15:04:06.132Z,7.60
2022-12-16T15:06:54.833Z,7.77
2022-12-16T15:09:56.802Z,7.83
2022-12-16T15:13:03.554Z,7.93
2022-12-16T15:15:51.425Z,7.87
2022-12-16T15:18:40.072Z,8.07
2022-12-16T15:21:33.054Z,8.20
2022-12-16T15:24:18.795Z,6.93
2022-12-16T15:27:04.043Z,8.50
2022-12-16T15:29:53.236Z,7.27
2022-12-16T15:32:50.273Z,7.37
2022-12-16T15:35:48.901Z,7.93
2022-12-16T15:38:47.095Z,7.47
2022-12-16T15:41:41.066Z,7.57
2022-12-16T15:44:33.848Z,8.63
2022-12-16T15:47:30.735Z,8.40
2022-12-16T15:50:16.182Z,9.50
2022-12-16T15:53:02.678Z,8.77
2022-12-16T15:55:52.454Z,8.87
2022-12-16T15:58:41.292Z,9.50
2022-12-16T16:01:27.306Z,9.43
2022-12-16T16:04:15.006Z,10.93
2022-12-16T16:07:03.467Z,9.73
2022-12-16T16:09:52.917Z,10.43
2022-12-16T16:12:43.401Z,10.93
2022-12-16T16:15:30.467Z,11.37
2022-12-16T16:18:19.114Z,11.03
2022-12-16T16:21:04.576Z,11.27
2022-12-16T16:24:01.363Z,11.37
2022-12-16T16:26:46.925Z,10.37
2022-12-16T16:29:33.617Z,10.90
2022-12-16T16:32:20.099Z,12.20
2022-12-16T16:35:05.376Z,11.90
2022-12-16T16:37:50.740Z,11.77
2022-12-16T16:40:40.709Z,11.50
2022-12-16T16:43:27.076Z,12.43
2022-12-16T16:46:14.276Z,11.47
2022-12-16T16:49:00.069Z,13.13
2022-12-16T16:51:45.835Z,11.50
2022-12-16T16:54:31.237Z,11.73
2022-12-16T16:57:18.775Z,12.37
2022-12-16T17:00:04.057Z,12.13
2022-12-16T17:02:52.951Z,12.70
2022-12-16T17:05:38.563Z,12.77
2022-12-16T17:08:24.259Z,10.77
2022-12-16T17:11:09.753Z,11.97
2022-12-16T17:13:55.049Z,11.40
2022-12-16T17:16:40.519Z,11.23
2022-12-16T17:19:27.072Z,12.63
2022-12-16T17:22:08.713Z,11.43
2022-12-16T17:24:54.702Z,12.93
2022-12-16T17:27:42.403Z,11.93
2022-12-16T17:30:33.948Z,10.23
2022-12-16T17:33:19.352Z,11.53
2022-12-16T17:36:09.043Z,10.50
2022-12-16T17:38:54.479Z,11.13
2022-12-16T17:41:39.887Z,11.63
2022-12-16T17:44:25.334Z,11.80
2022-12-16T17:47:10.692Z,11.30
2022-12-16T17:49:52.372Z,12.13
2022-12-16T17:52:41.956Z,10.23
2022-12-16T17:55:28.379Z,9.97
2022-12-16T17:58:13.746Z,11.60
2022-12-16T18:00:59.160Z,12.13
2022-12-16T18:03:44.701Z,11.03
2022-12-16T18:06:29.812Z,9.70
2022-12-16T18:09:16.509Z,13.27
2022-12-16T18:12:01.912Z,13.27
2022-12-16T18:14:47.185Z,12.13
2022-12-16T18:17:32.665Z,12.63
2022-12-16T18:20:18.001Z,11.23
2022-12-16T18:23:03.362Z,14.60
2022-12-16T18:25:52.232Z,12.43
2022-12-16T18:28:37.515Z,11.03
2022-12-16T18:31:23.869Z,11.00
2022-12-16T18:34:09.399Z,11.10
2022-12-16T18:37:06.527Z,13.03
2022-12-16T18:39:52.104Z,12.93
2022-12-16T18:42:38.794Z,13.03
2022-12-16T18:45:24.839Z,12.10
2022-12-16T18:48:10.579Z,13.27
2022-12-16T18:50:56.308Z,13.53
2022-12-16T18:53:41.966Z,11.77
2022-12-16T18:56:28.463Z,13.27
2022-12-16T18:59:15.519Z,13.30
2022-12-16T19:02:01.254Z,13.03
2022-12-16T19:04:47.156Z,12.37
2022-12-16T19:07:33.907Z,13.57
2022-12-16T19:10:19.550Z,13.73
2022-12-16T19:13:05.051Z,13.47
2022-12-16T19:15:51.796Z,13.30
2022-12-16T19:18:37.464Z,14.70
2022-12-16T19:21:23.028Z,15.77
2022-12-16T19:24:09.302Z,15.43
2022-12-16T19:26:56.443Z,15.33
2022-12-16T19:29:59.873Z,13.13
2022-12-16T19:32:46.454Z,14.90
2022-12-16T19:35:31.773Z,15.67
2022-12-16T19:38:17.365Z,15.10
2022-12-16T19:41:09.510Z,17.23
2022-12-16T19:43:58.725Z,16.17
2022-12-16T19:46:47.135Z,18.27
2022-12-16T19:49:33.726Z,16.97
2022-12-16T19:52:19.077Z,13.87
2022-12-16T19:55:04.484Z,16.17
2022-12-16T19:57:49.947Z,14.93
2022-12-16T20:00:35.342Z,18.33
2022-12-16T20:03:21.034Z,24.23
2022-12-16T20:06:21.390Z,18.57
2022-12-16T20:09:08.768Z,17.80
2022-12-16T20:11:54.692Z,15.23
2022-12-16T20:14:41.237Z,11.97
2022-12-16T20:17:27.623Z,11.67
2022-12-16T20:20:13.657Z,11.13
2022-12-16T20:23:00.364Z,10.33
2022-12-16T20:25:47.292Z,10.43
2022-12-16T20:28:32.726Z,9.87
2022-12-16T20:31:19.228Z,10.20
2022-12-16T20:34:04.602Z,10.70
2022-12-16T20:36:50.115Z,9.93
2022-12-16T20:39:36.651Z,8.83
2022-12-16T20:42:22.006Z,9.63
2022-12-16T20:45:07.285Z,10.43
2022-12-16T20:47:52.669Z,10.33
2022-12-16T20:50:41.354Z,13.23
2022-12-16T20:53:26.713Z,12.90
2022-12-16T20:56:13.327Z,14.37
2022-12-16T20:58:59.585Z,12.33
2022-12-16T21:04:49.927Z,12.97
2022-12-16T21:07:35.237Z,12.03
2022-12-16T21:10:20.590Z,11.97
2022-12-16T21:13:07.314Z,13.53
2022-12-16T21:15:52.625Z,12.53
2022-12-16T21:18:41.820Z,12.37
2022-12-16T21:21:27.584Z,13.17
2022-12-16T21:24:12.825Z,12.33
2022-12-16T21:26:58.226Z,12.10
2022-12-16T21:29:45.138Z,13.53
2022-12-16T21:32:30.451Z,11.87
2022-12-16T21:35:16.091Z,13.07
2022-12-16T21:38:02.187Z,13.43
2022-12-16T21:40:47.772Z,14.43
2022-12-16T21:43:34.416Z,15.67
2022-12-16T21:46:23.345Z,15.83
2022-12-16T21:49:08.619Z,19.07
2022-12-16T21:51:56.222Z,18.40
2022-12-16T21:54:41.648Z,17.63
2022-12-16T21:57:26.895Z,15.50
2022-12-16T22:00:12.085Z,22.52
2022-12-16T22:02:58.806Z,18.40
2022-12-16T22:05:44.453Z,16.93
2022-12-16T22:08:29.089Z,16.13
2022-12-16T22:11:14.466Z,15.60
2022-12-16T22:13:59.879Z,14.13
2022-12-16T22:16:45.201Z,15.07
2022-12-16T22:19:31.759Z,14.10
2022-12-16T22:22:17.185Z,13.63
2022-12-16T22:25:02.325Z,13.13
2022-12-16T22:27:47.727Z,13.63
2022-12-16T22:30:32.935Z,11.83
2022-12-16T22:33:18.242Z,14.90
2022-12-16T22:36:04.952Z,13.87
2022-12-16T22:38:50.771Z,13.97
2022-12-16T22:41:37.529Z,12.67
2022-12-16T22:44:23.400Z,12.87
2022-12-16T22:47:08.619Z,11.93
2022-12-16T22:49:58.001Z,12.40
2022-12-16T22:52:44.630Z,11.50
2022-12-16T22:55:30.002Z,11.47
2022-12-16T22:58:17.620Z,11.27
2022-12-16T23:01:17.508Z,10.93
2022-12-16T23:04:02.541Z,11.00
2022-12-16T23:06:48.161Z,10.13
2022-12-16T23:09:34.770Z,10.70
2022-12-16T23:12:20.371Z,11.23
2022-12-16T23:15:05.476Z,11.47
2022-12-16T23:17:50.792Z,10.40
2022-12-16T23:20:37.295Z,11.53
2022-12-16T23:23:22.697Z,10.57
2022-12-16T23:26:15.144Z,10.77
2022-12-16T23:29:00.673Z,11.07
2022-12-16T23:31:46.076Z,11.47
2022-12-16T23:34:31.387Z,12.73
2022-12-16T23:37:16.844Z,13.10
2022-12-16T23:40:02.285Z,13.97
2022-12-16T23:42:48.913Z,12.97
2022-12-16T23:45:34.333Z,11.53
2022-12-16T23:48:20.609Z,12.00
2022-12-16T23:51:06.064Z,11.63
2022-12-16T23:53:56.419Z,13.57
2022-12-16T23:56:42.422Z,11.33
2022-12-16T23:59:29.623Z,12.00
